createdAt,value
2023-02-05T14:43:35.506Z,9.32
2023-02-05T14:46:41.442Z,16.15
2023-02-05T14:49:27.667Z,11.23
2023-02-05T14:52:03.002Z,14.77
2023-02-05T14:54:52.207Z,11.25
2023-02-05T14:57:24.503Z,15.40
2023-02-05T15:00:04.398Z,15.32
2023-02-05T15:03:00.083Z,15.27
2023-02-05T15:05:40.686Z,15.43
2023-02-05T15:08:37.666Z,11.93
2023-02-05T15:11:24.953Z,12.57
2023-02-05T15:14:32.469Z,16.38
2023-02-05T15:17:09.777Z,13.50
2023-02-05T15:19:44.400Z,13.75
2023-02-05T15:22:40.867Z,17.17
2023-02-05T15:25:29.195Z,13.95
2023-02-05T15:28:07.166Z,16.85
2023-02-05T15:30:47.820Z,14.30
2023-02-05T15:33:29.375Z,16.52
2023-02-05T15:35:56.545Z,18.23
2023-02-05T15:38:43.854Z,22.67
2023-02-05T15:41:15.010Z,16.80
2023-02-05T15:46:23.184Z,14.10
2023-02-05T15:48:50.627Z,19.50
2023-02-05T15:51:47.187Z,13.45
2023-02-05T15:54:20.055Z,12.77
2023-02-05T15:56:50.834Z,11.82
2023-02-05T15:59:25.391Z,16.63
2023-02-05T16:02:20.301Z,10.90
2023-02-05T16:04:55.423Z,16.05
2023-02-05T16:07:28.242Z,17.52
2023-02-05T16:10:00.473Z,13.75
2023-02-05T16:12:27.605Z,12.15
2023-02-05T16:15:13.123Z,12.77
2023-02-05T16:17:47.186Z,20.17
2023-02-05T16:20:51.608Z,18.02
2023-02-05T16:23:39.708Z,11.75
2023-02-05T16:26:23.547Z,15.18
2023-02-05T16:29:00.214Z,12.70
2023-02-05T16:31:28.945Z,17.35
2023-02-05T16:34:02.437Z,14.23
2023-02-05T16:36:34.848Z,15.50
2023-02-05T16:39:19.091Z,13.20
2023-02-05T16:41:46.148Z,12.90
2023-02-05T16:44:32.972Z,16.13
2023-02-05T16:47:21.207Z,11.45
2023-02-05T16:49:49.284Z,12.43
2023-02-05T16:52:30.843Z,15.80
2023-02-05T16:55:06.105Z,10.13
2023-02-05T16:57:37.056Z,15.27
2023-02-05T17:00:23.610Z,9.45
2023-02-05T17:02:55.329Z,16.80
2023-02-05T17:05:36.819Z,10.48
2023-02-05T17:08:08.426Z,10.65
2023-02-05T17:10:56.588Z,8.68
2023-02-05T17:13:30.342Z,9.38
2023-02-05T17:15:56.867Z,9.57
2023-02-05T17:18:30.246Z,9.63
2023-02-05T17:21:29.574Z,10.52
2023-02-05T17:23:58.750Z,11.02
2023-02-05T17:26:28.152Z,7.82
2023-02-05T17:29:01.218Z,8.95
2023-02-05T17:31:29.301Z,8.68
2023-02-05T17:33:57.854Z,11.65
2023-02-05T17:36:25.478Z,11.57
2023-02-05T17:38:52.893Z,11.02
2023-02-05T17:41:41.699Z,10.27
2023-02-05T17:44:13.148Z,13.77
2023-02-05T17:46:39.995Z,12.52
2023-02-05T17:49:06.531Z,17.13
2023-02-05T17:51:33.170Z,12.25
2023-02-05T17:53:59.915Z,14.75
2023-02-05T17:56:27.425Z,14.48
2023-02-05T17:58:55.668Z,13.23
2023-02-05T18:01:22.428Z,9.90
2023-02-05T18:03:49.096Z,11.18
2023-02-05T18:06:17.909Z,11.30
2023-02-05T18:08:45.466Z,10.70
2023-02-05T18:11:11.970Z,12.00
2023-02-05T18:13:38.472Z,10.05
2023-02-05T18:16:05.425Z,9.38
2023-02-05T18:18:34.474Z,9.45
2023-02-05T18:21:01.019Z,10.65
2023-02-05T18:23:29.450Z,13.13
2023-02-05T18:25:57.360Z,10.68
2023-02-05T18:28:24.325Z,13.68
2023-02-05T18:31:03.278Z,11.93
2023-02-05T18:33:30.186Z,11.65
2023-02-05T18:36:15.326Z,11.45
2023-02-05T18:38:45.345Z,9.38
2023-02-05T18:41:13.177Z,11.25
2023-02-05T18:43:40.271Z,10.50
2023-02-05T18:46:14.514Z,8.98
2023-02-05T18:48:41.790Z,11.63
2023-02-05T18:51:11.066Z,8.40
2023-02-05T18:53:39.183Z,9.98
2023-02-05T18:56:16.698Z,10.38
2023-02-05T18:58:44.618Z,11.32
2023-02-05T19:01:16.422Z,12.65
2023-02-05T19:03:43.697Z,13.90
2023-02-05T19:06:12.134Z,10.20
2023-02-05T19:08:39.010Z,12.88
2023-02-05T19:11:10.575Z,12.40
2023-02-05T19:13:37.490Z,10.98
2023-02-05T19:16:06.590Z,11.05
2023-02-05T19:18:33.375Z,11.18
2023-02-05T19:21:04.840Z,15.20
2023-02-05T19:23:31.355Z,10.27
2023-02-05T19:25:57.886Z,10.65
2023-02-05T19:28:24.398Z,12.90
2023-02-05T19:30:50.975Z,12.45
2023-02-05T19:33:17.574Z,13.10
2023-02-05T19:35:44.144Z,12.57
2023-02-05T19:38:10.674Z,13.45
2023-02-05T19:40:37.436Z,12.80
2023-02-05T19:43:04.232Z,13.75
2023-02-05T19:45:30.852Z,11.40
2023-02-05T19:47:57.391Z,13.90
2023-02-05T19:50:25.705Z,11.50
2023-02-05T19:52:53.102Z,11.60
2023-02-05T19:55:19.646Z,11.98
2023-02-05T19:57:46.217Z,10.57
2023-02-05T20:00:13.201Z,10.80
2023-02-05T20:02:39.731Z,15.10
2023-02-05T20:05:06.501Z,16.67
2023-02-05T20:07:37.995Z,14.45
2023-02-05T20:10:05.997Z,12.45
2023-02-05T20:12:32.551Z,12.57
2023-02-05T20:14:59.167Z,12.52
2023-02-05T20:17:25.718Z,13.80
2023-02-05T20:19:59.662Z,16.98
2023-02-05T20:22:32.331Z,17.67
2023-02-05T20:24:58.930Z,18.48
2023-02-05T20:27:25.519Z,15.30
2023-02-05T20:30:10.658Z,15.88
2023-02-05T20:32:37.183Z,16.92
2023-02-05T20:35:03.806Z,20.65
2023-02-05T20:37:30.383Z,19.08
2023-02-05T20:39:57.749Z,19.73
2023-02-05T20:42:24.314Z,19.65
2023-02-05T20:44:50.880Z,19.02
2023-02-05T20:47:17.403Z,16.27
2023-02-05T20:49:44.045Z,21.42
2023-02-05T20:52:11.222Z,20.58
2023-02-05T20:54:37.831Z,19.45
2023-02-05T20:57:04.456Z,19.13
2023-02-05T20:59:36.408Z,20.90
2023-02-05T21:02:03.824Z,18.50
2023-02-05T21:04:30.780Z,19.08
2023-02-05T21:06:58.233Z,16.45
2023-02-05T21:09:24.866Z,18.27
2023-02-05T21:11:55.168Z,18.50
2023-02-05T21:14:23.065Z,19.20
2023-02-05T21:16:49.643Z,20.38
2023-02-05T21:19:16.209Z,19.35
2023-02-05T21:21:42.766Z,22.10
2023-02-05T21:24:13.082Z,18.30
2023-02-05T21:26:42.215Z,19.35
2023-02-05T21:29:17.825Z,22.27
2023-02-05T21:31:46.989Z,21.83
2023-02-05T21:34:21.483Z,23.13
2023-02-05T21:36:48.350Z,23.90
2023-02-05T21:39:20.151Z,27.98
2023-02-05T21:41:47.406Z,24.70
2023-02-05T21:44:14.272Z,24.83
2023-02-05T21:46:41.074Z,24.63
2023-02-05T21:49:07.704Z,23.17
2023-02-05T21:51:35.364Z,24.70
2023-02-05T21:54:04.269Z,24.98
2023-02-05T21:56:34.462Z,24.70
2023-02-05T21:59:01.123Z,26.63
2023-02-05T22:01:29.918Z,25.83
2023-02-05T22:04:01.675Z,20.67
2023-02-05T22:06:31.544Z,23.33
2023-02-05T22:08:59.097Z,26.58
2023-02-05T22:11:26.463Z,23.85
2023-02-05T22:13:55.161Z,24.65
2023-02-05T22:16:24.902Z,26.77
2023-02-05T22:18:52.606Z,26.75
2023-02-05T22:21:22.169Z,26.17
2023-02-05T22:23:51.208Z,27.00
2023-02-05T22:26:20.386Z,27.45
2023-02-05T22:28:47.818Z,27.25
2023-02-05T22:31:17.145Z,32.33
2023-02-05T22:33:45.978Z,29.67
2023-02-05T22:36:17.859Z,33.38
2023-02-05T22:38:44.511Z,30.55
2023-02-05T22:41:20.204Z,39.60
2023-02-05T22:43:46.988Z,33.78
2023-02-05T22:46:16.405Z,26.95
2023-02-05T22:48:45.223Z,32.85
2023-02-05T22:51:14.317Z,30.95
2023-02-05T22:53:40.991Z,33.83
2023-02-05T22:56:12.601Z,30.85
2023-02-05T22:58:41.372Z,29.13
2023-02-05T23:01:13.893Z,29.42
2023-02-05T23:03:41.137Z,27.40
2023-02-05T23:06:12.132Z,29.63
2023-02-05T23:08:39.004Z,27.13
2023-02-05T23:11:10.486Z,21.05
2023-02-05T23:13:37.031Z,24.67
2023-02-05T23:16:12.456Z,21.58
2023-02-05T23:18:40.251Z,23.48
2023-02-05T23:21:12.078Z,20.40
2023-02-05T23:23:38.627Z,23.25
2023-02-05T23:26:07.328Z,22.95
2023-02-05T23:28:33.886Z,25.98
2023-02-05T23:31:00.504Z,19.65
2023-02-05T23:33:27.449Z,21.25
2023-02-05T23:35:55.048Z,22.30
2023-02-05T23:38:21.568Z,22.25
2023-02-05T23:40:48.063Z,19.05
2023-02-05T23:43:14.651Z,19.92
2023-02-05T23:45:42.541Z,20.35
2023-02-05T23:48:09.440Z,17.42
2023-02-05T23:50:36.379Z,18.30
2023-02-05T23:53:04.122Z,18.52
2023-02-05T23:55:31.251Z,15.93
2023-02-05T23:57:57.925Z,17.35
